Time;durP1;ratioP1;P1;durP2;ratioP2;P2;SDS_P1;SDS_P2;PMS_P1;PMS_P2;Temp;Humidity;BMP_temperature;BMP_pressure;BME280_temperature;BME280_humidity;BME280_pressure;Samples;Min_cycle;Max_cycle;Signal;HPM_P1;HPM_P2
2023/07/30 00:01:39;;;;;;;6.28;0.90;;;16.10;99.90;;;;;;4997836;28;20074;-71
2023/07/30 00:04:04;;;;;;;4.00;1.13;;;16.10;99.90;;;;;;5010940;28;20034;-72
2023/07/30 00:06:30;;;;;;;7.88;0.82;;;16.00;99.90;;;;;;5017662;28;20092;-70
2023/07/30 00:08:55;;;;;;;6.35;1.60;;;16.00;99.90;;;;;;5015737;28;20483;-69
2023/07/30 00:11:21;;;;;;;5.30;0.90;;;16.00;99.90;;;;;;4992982;28;20038;-71
2023/07/30 00:13:46;;;;;;;4.35;1.00;;;15.90;99.90;;;;;;5000201;28;20498;-71
2023/07/30 00:16:12;;;;;;;11.95;2.13;;;15.90;99.90;;;;;;5023531;28;20025;-72
2023/07/30 00:18:37;;;;;;;7.45;0.68;;;15.90;99.90;;;;;;5003814;28;20502;-72
2023/07/30 00:21:03;;;;;;;4.30;0.80;;;15.80;99.90;;;;;;5003071;28;20449;-71
2023/07/30 00:23:29;;;;;;;3.78;1.20;;;15.80;99.90;;;;;;5017716;28;20041;-70
2023/07/30 00:25:54;;;;;;;4.35;1.30;;;15.80;99.90;;;;;;5020010;28;20108;-71
2023/07/30 00:28:20;;;;;;;4.90;1.27;;;15.80;99.90;;;;;;5015262;28;20065;-70
2023/07/30 00:30:46;;;;;;;4.68;0.90;;;15.80;99.90;;;;;;5009358;28;20037;-70
2023/07/30 00:33:12;;;;;;;4.22;0.98;;;15.70;99.90;;;;;;5018996;28;20091;-71
2023/07/30 00:35:37;;;;;;;3.25;0.75;;;15.80;99.90;;;;;;5018479;28;20050;-71
2023/07/30 00:38:03;;;;;;;4.35;0.90;;;15.70;99.90;;;;;;4991935;28;20539;-71
2023/07/30 00:40:28;;;;;;;7.35;1.02;;;15.70;99.90;;;;;;5019551;28;20042;-73
2023/07/30 00:42:54;;;;;;;8.95;2.35;;;15.70;99.90;;;;;;5022189;28;20454;-70
2023/07/30 00:45:20;;;;;;;1.67;0.88;;;15.60;99.90;;;;;;5022594;28;20091;-71
2023/07/30 00:47:46;;;;;;;7.28;1.67;;;15.60;99.90;;;;;;5027571;28;20041;-71
2023/07/30 00:50:14;;;;;;;4.35;1.25;;;15.60;99.90;;;;;;4996326;28;20061;-73
2023/07/30 00:52:40;;;;;;;3.33;0.77;;;15.60;99.90;;;;;;5026567;28;20468;-71
2023/07/30 00:55:07;;;;;;;8.73;1.10;;;15.60;99.90;;;;;;5022927;28;20068;-72
2023/07/30 00:57:34;;;;;;;8.80;1.35;;;15.60;99.90;;;;;;4992695;28;20510;-71
2023/07/30 01:00:04;;;;;;;6.25;0.95;;;15.60;99.90;;;;;;5020564;28;20042;-72
2023/07/30 01:02:30;;;;;;;8.55;1.50;;;15.70;99.90;;;;;;5002169;28;20026;-72
2023/07/30 01:04:57;;;;;;;6.40;1.45;;;15.70;99.90;;;;;;5019657;28;20029;-70
2023/07/30 01:07:22;;;;;;;5.15;1.65;;;15.70;99.90;;;;;;5007121;28;20029;-71
2023/07/30 01:09:48;;;;;;;5.55;1.02;;;15.80;99.90;;;;;;5004398;28;20037;-71
2023/07/30 01:12:14;;;;;;;2.92;0.80;;;15.80;99.90;;;;;;5014035;28;20115;-73
2023/07/30 01:14:40;;;;;;;3.60;0.90;;;15.80;99.90;;;;;;5018438;28;20080;-70
2023/07/30 01:17:06;;;;;;;6.05;0.95;;;15.90;99.90;;;;;;5003081;28;20030;-70
2023/07/30 01:19:31;;;;;;;10.23;2.05;;;15.90;99.90;;;;;;5001280;28;20040;-70
2023/07/30 01:21:58;;;;;;;4.05;1.40;;;15.90;99.90;;;;;;5014442;28;20048;-70
2023/07/30 01:24:23;;;;;;;10.60;1.33;;;16.00;99.90;;;;;;5021183;28;20813;-71
2023/07/30 01:26:58;;;;;;;7.13;1.35;;;16.00;99.90;;;;;;5003644;28;20040;-72
2023/07/30 01:29:51;;;;;;;7.22;1.02;;;16.00;99.90;;;;;;5001072;28;20045;-70
2023/07/30 01:32:19;;;;;;;8.00;0.98;;;16.10;99.90;;;;;;5016963;28;20030;-70
2023/07/30 01:34:48;;;;;;;10.15;1.50;;;16.10;99.90;;;;;;5014287;28;20107;-72
2023/07/30 01:37:14;;;;;;;14.68;1.95;;;16.10;99.90;;;;;;5021241;28;20533;-70
2023/07/30 01:39:42;;;;;;;12.55;1.38;;;16.10;99.90;;;;;;5021345;28;20033;-73
2023/07/30 01:42:07;;;;;;;5.03;1.10;;;16.10;99.90;;;;;;5017347;28;20044;-71
2023/07/30 01:44:33;;;;;;;6.90;1.20;;;16.10;99.90;;;;;;5019340;28;20042;-70
2023/07/30 01:46:58;;;;;;;6.85;1.48;;;16.10;99.90;;;;;;5000166;28;20037;-72
2023/07/30 01:49:24;;;;;;;6.10;1.42;;;16.10;99.90;;;;;;5013843;28;20451;-71
2023/07/30 01:51:49;;;;;;;4.25;1.70;;;16.10;99.90;;;;;;5021163;28;20047;-72
2023/07/30 01:54:15;;;;;;;5.18;1.92;;;16.10;99.90;;;;;;5016884;28;20117;-72
2023/07/30 01:56:41;;;;;;;4.22;1.40;;;16.10;99.90;;;;;;5003216;28;20060;-72
2023/07/30 01:59:06;;;;;;;8.65;1.17;;;16.10;99.90;;;;;;5022052;28;20029;-71
2023/07/30 02:01:32;;;;;;;9.27;1.40;;;16.10;99.90;;;;;;5016675;28;20787;-72
2023/07/30 02:03:57;;;;;;;6.10;1.23;;;16.10;99.90;;;;;;5019237;28;20084;-72
2023/07/30 02:06:23;;;;;;;7.22;1.48;;;16.10;99.90;;;;;;5001189;28;20055;-72
2023/07/30 02:08:48;;;;;;;10.18;2.38;;;16.00;99.90;;;;;;5017900;28;20124;-72
2023/07/30 02:11:14;;;;;;;8.68;1.75;;;16.00;99.90;;;;;;5019957;28;20491;-72
2023/07/30 02:13:39;;;;;;;13.68;1.52;;;16.00;99.90;;;;;;5016846;28;20037;-72
2023/07/30 02:16:05;;;;;;;10.55;1.40;;;16.10;99.90;;;;;;5020139;28;20038;-72
2023/07/30 02:18:30;;;;;;;5.45;0.90;;;16.00;99.90;;;;;;5017796;28;20029;-72
2023/07/30 02:20:56;;;;;;;11.38;1.55;;;16.10;99.90;;;;;;5018702;28;20034;-73
2023/07/30 02:23:21;;;;;;;12.25;1.77;;;16.00;99.90;;;;;;5018790;28;20056;-72
2023/07/30 02:25:47;;;;;;;6.15;1.25;;;16.00;99.90;;;;;;5017540;28;20030;-73
2023/07/30 02:28:13;;;;;;;8.82;1.45;;;16.10;99.90;;;;;;5019185;28;20033;-72
2023/07/30 02:30:38;;;;;;;11.23;2.30;;;16.00;99.90;;;;;;5017097;28;20038;-72
2023/07/30 02:33:04;;;;;;;9.20;1.35;;;16.10;99.90;;;;;;5019984;28;20517;-72
2023/07/30 02:35:29;;;;;;;7.75;1.33;;;16.00;99.90;;;;;;4999497;28;20436;-71
2023/07/30 02:37:55;;;;;;;11.05;2.10;;;16.00;99.90;;;;;;5000636;28;20034;-72
2023/07/30 02:40:20;;;;;;;10.60;1.90;;;16.00;99.90;;;;;;5018235;28;20041;-72
2023/07/30 02:42:46;;;;;;;10.05;1.83;;;15.90;99.90;;;;;;5016960;28;20034;-71
2023/07/30 02:45:11;;;;;;;11.05;1.60;;;15.90;99.90;;;;;;5016671;28;20030;-72
2023/07/30 02:47:37;;;;;;;16.77;2.28;;;15.80;99.90;;;;;;5019700;28;20056;-72
2023/07/30 02:50:05;;;;;;;16.50;2.38;;;15.80;99.90;;;;;;5017273;28;20041;-72
2023/07/30 02:52:31;;;;;;;9.15;1.40;;;15.70;99.90;;;;;;5000595;28;20025;-72
2023/07/30 02:54:56;;;;;;;17.10;2.08;;;15.70;99.90;;;;;;5017795;28;20034;-71
2023/07/30 02:57:22;;;;;;;11.50;2.15;;;15.70;99.90;;;;;;5015606;28;20076;-71
2023/07/30 02:59:48;;;;;;;10.13;1.58;;;15.60;99.90;;;;;;5017255;28;20034;-73
2023/07/30 03:02:13;;;;;;;12.35;1.90;;;15.60;99.90;;;;;;5018677;28;20075;-73
2023/07/30 03:04:39;;;;;;;11.25;2.05;;;15.60;99.90;;;;;;5016792;28;20034;-71
2023/07/30 03:07:05;;;;;;;10.80;1.83;;;15.60;99.90;;;;;;5001717;28;20033;-71
2023/07/30 03:09:30;;;;;;;16.90;3.03;;;15.60;99.90;;;;;;5016014;28;20534;-72
2023/07/30 03:11:56;;;;;;;14.77;2.50;;;15.60;99.90;;;;;;5000424;28;20052;-72
2023/07/30 03:14:21;;;;;;;7.40;1.63;;;15.50;99.90;;;;;;5013061;28;20191;-71
2023/07/30 03:16:48;;;;;;;16.65;2.05;;;15.50;99.90;;;;;;4999263;28;20044;-72
2023/07/30 03:19:14;;;;;;;10.48;1.95;;;15.50;99.90;;;;;;5018663;28;20091;-72
2023/07/30 03:21:39;;;;;;;6.68;1.60;;;15.40;99.90;;;;;;4998743;28;20443;-72
2023/07/30 03:24:05;;;;;;;13.32;2.33;;;15.50;99.90;;;;;;5019462;28;20025;-72
2023/07/30 03:26:30;;;;;;;8.10;1.60;;;15.40;99.90;;;;;;4997680;28;20045;-72
2023/07/30 03:28:56;;;;;;;21.05;3.17;;;15.40;99.90;;;;;;5000582;28;20041;-72
2023/07/30 03:31:21;;;;;;;15.07;2.15;;;15.40;99.90;;;;;;4999154;28;20034;-72
2023/07/30 03:33:47;;;;;;;16.73;2.80;;;15.30;99.90;;;;;;5016979;28;20030;-72
2023/07/30 03:36:13;;;;;;;14.73;2.00;;;15.30;99.90;;;;;;5018054;28;20413;-72
2023/07/30 03:38:39;;;;;;;18.77;2.90;;;15.30;99.90;;;;;;5011760;28;20109;-72
2023/07/30 03:41:06;;;;;;;11.55;1.75;;;15.30;99.90;;;;;;4992178;28;20070;-71
2023/07/30 03:43:32;;;;;;;13.20;2.10;;;15.40;99.90;;;;;;4998165;28;20104;-70
2023/07/30 03:45:58;;;;;;;12.70;3.22;;;15.40;99.90;;;;;;4992946;28;20037;-71
2023/07/30 03:48:23;;;;;;;15.95;3.30;;;15.30;99.90;;;;;;5014613;28;20056;-71
2023/07/30 03:50:49;;;;;;;15.27;2.78;;;15.30;99.90;;;;;;5017957;28;20044;-72
2023/07/30 03:53:15;;;;;;;10.30;1.73;;;15.30;99.90;;;;;;4997828;28;20096;-71
2023/07/30 03:55:40;;;;;;;12.63;2.28;;;15.30;99.90;;;;;;5018531;28;20064;-72
2023/07/30 03:58:06;;;;;;;12.93;2.42;;;15.30;99.90;;;;;;5015969;28;20124;-71
2023/07/30 04:00:32;;;;;;;18.70;2.42;;;15.30;99.90;;;;;;5014837;28;20058;-73
2023/07/30 04:02:58;;;;;;;12.57;2.40;;;15.30;99.90;;;;;;5018512;28;20038;-71
2023/07/30 04:05:24;;;;;;;11.52;2.47;;;15.30;99.90;;;;;;5016068;28;20514;-72
2023/07/30 04:07:49;;;;;;;15.05;2.22;;;15.40;99.90;;;;;;5017160;28;20038;-71
2023/07/30 04:10:15;;;;;;;13.95;2.70;;;15.40;99.90;;;;;;4999448;28;20026;-71
2023/07/30 04:12:40;;;;;;;20.30;3.28;;;15.40;99.90;;;;;;5015871;28;20034;-73
2023/07/30 04:15:06;;;;;;;17.27;2.65;;;15.40;99.90;;;;;;5019014;28;20029;-71
2023/07/30 04:17:32;;;;;;;14.35;3.15;;;15.50;99.90;;;;;;5014062;28;20399;-71
2023/07/30 04:19:58;;;;;;;15.45;3.72;;;15.50;99.90;;;;;;5016261;28;20077;-71
2023/07/30 04:22:24;;;;;;;17.67;4.05;;;15.50;99.90;;;;;;5016647;28;20053;-71
2023/07/30 04:24:49;;;;;;;21.92;3.70;;;15.50;99.90;;;;;;5014612;28;20450;-70
2023/07/30 04:27:15;;;;;;;29.13;3.25;;;15.60;99.90;;;;;;5016854;28;20033;-71
2023/07/30 04:29:40;;;;;;;16.05;2.30;;;15.60;99.90;;;;;;5015936;28;20372;-71
2023/07/30 04:32:06;;;;;;;19.88;2.95;;;15.70;99.90;;;;;;5017922;28;20053;-72
2023/07/30 04:34:32;;;;;;;12.82;2.83;;;15.70;99.90;;;;;;5017947;28;20044;-71
2023/07/30 04:36:58;;;;;;;17.20;2.72;;;15.70;99.90;;;;;;5016496;28;20034;-71
2023/07/30 04:39:23;;;;;;;13.25;2.13;;;15.70;99.90;;;;;;5014499;28;20042;-71
2023/07/30 04:41:49;;;;;;;18.77;3.13;;;15.80;99.90;;;;;;4984178;28;20037;-73
2023/07/30 04:44:14;;;;;;;18.77;2.65;;;15.80;99.90;;;;;;5001915;28;20034;-72
2023/07/30 04:46:40;;;;;;;13.38;2.58;;;15.80;99.90;;;;;;4998667;28;20046;-72
2023/07/30 04:49:05;;;;;;;14.77;3.17;;;15.80;99.90;;;;;;4995911;28;20030;-72
2023/07/30 04:51:31;;;;;;;18.23;2.58;;;15.90;99.90;;;;;;4990959;28;20038;-71
2023/07/30 04:53:56;;;;;;;13.75;3.00;;;15.90;99.90;;;;;;4999519;28;20403;-72
2023/07/30 04:56:22;;;;;;;13.52;2.80;;;15.90;99.90;;;;;;4997041;28;20483;-72
2023/07/30 04:58:48;;;;;;;17.15;2.78;;;15.90;99.90;;;;;;4997458;28;20049;-72
2023/07/30 05:01:13;;;;;;;15.93;2.97;;;15.90;99.90;;;;;;5000320;28;20121;-73
2023/07/30 05:03:39;;;;;;;11.93;3.25;;;16.00;99.90;;;;;;4999667;28;20133;-71
2023/07/30 05:06:05;;;;;;;14.68;2.70;;;16.10;99.90;;;;;;5002956;28;20041;-72
2023/07/30 05:08:30;;;;;;;18.92;2.75;;;16.20;99.90;;;;;;4993999;28;20034;-72
2023/07/30 05:10:56;;;;;;;22.73;3.35;;;16.20;99.90;;;;;;5002174;28;20034;-73
2023/07/30 05:13:21;;;;;;;19.40;3.20;;;16.30;99.90;;;;;;4996844;28;20035;-71
2023/07/30 05:15:47;;;;;;;13.90;3.38;;;16.30;99.90;;;;;;4999317;28;20037;-71
2023/07/30 05:18:13;;;;;;;18.70;2.88;;;16.30;99.90;;;;;;4998888;28;20050;-72
2023/07/30 05:20:39;;;;;;;20.75;3.58;;;16.40;99.90;;;;;;5001589;28;20097;-73
2023/07/30 05:23:06;;;;;;;12.10;2.65;;;16.40;99.90;;;;;;4998328;28;20038;-71
2023/07/30 05:25:32;;;;;;;15.30;3.47;;;16.40;99.90;;;;;;5001370;28;20029;-72
2023/07/30 05:27:57;;;;;;;19.45;2.78;;;16.40;99.90;;;;;;4998816;28;20041;-71
2023/07/30 05:30:23;;;;;;;18.23;3.30;;;16.50;99.90;;;;;;4999100;28;20046;-72
2023/07/30 05:32:49;;;;;;;29.20;4.03;;;16.50;99.90;;;;;;4998860;28;20034;-72
2023/07/30 05:35:15;;;;;;;13.88;2.30;;;16.50;99.90;;;;;;4998669;28;20042;-73
2023/07/30 05:37:40;;;;;;;19.42;2.85;;;16.60;99.90;;;;;;5000558;28;20071;-71
2023/07/30 05:40:07;;;;;;;13.20;2.83;;;16.70;99.90;;;;;;4998962;28;20034;-72
2023/07/30 05:42:32;;;;;;;18.23;2.70;;;16.70;99.90;;;;;;5001206;28;20045;-71
2023/07/30 05:44:58;;;;;;;21.25;3.72;;;16.70;99.90;;;;;;4990813;28;20044;-71
2023/07/30 05:47:23;;;;;;;21.45;3.58;;;16.80;99.90;;;;;;4997652;28;20073;-71
2023/07/30 05:49:49;;;;;;;16.95;3.65;;;16.90;99.90;;;;;;5000640;28;20045;-72
2023/07/30 05:52:15;;;;;;;17.73;2.90;;;16.90;99.90;;;;;;4998802;28;20048;-72
2023/07/30 05:54:40;;;;;;;20.83;2.83;;;16.90;99.90;;;;;;4997607;28;20089;-72
2023/07/30 05:57:06;;;;;;;13.80;3.08;;;17.00;99.90;;;;;;5001455;28;20498;-72
2023/07/30 05:59:31;;;;;;;21.17;3.42;;;17.00;99.90;;;;;;4996883;28;20046;-71
2023/07/30 06:02:01;;;;;;;15.40;3.05;;;17.00;99.90;;;;;;4993993;28;20496;-72
2023/07/30 06:04:26;;;;;;;18.15;3.28;;;17.10;99.90;;;;;;4999273;28;20038;-72
2023/07/30 06:06:52;;;;;;;16.05;3.15;;;17.10;99.90;;;;;;4996837;28;20105;-72
2023/07/30 06:09:18;;;;;;;13.63;3.28;;;17.20;99.90;;;;;;4999140;28;20042;-72
2023/07/30 06:11:43;;;;;;;15.57;3.30;;;17.30;99.90;;;;;;4998138;28;20130;-71
2023/07/30 06:14:09;;;;;;;11.98;2.95;;;17.30;99.90;;;;;;5000079;28;20037;-71
2023/07/30 06:16:34;;;;;;;7.25;2.10;;;17.30;99.90;;;;;;4997030;28;20069;-71
2023/07/30 06:19:00;;;;;;;18.23;3.03;;;17.30;99.90;;;;;;4999652;28;20039;-71
2023/07/30 06:21:25;;;;;;;13.88;2.72;;;17.50;99.90;;;;;;4999763;28;20759;-71
2023/07/30 06:23:51;;;;;;;20.10;3.58;;;17.50;99.90;;;;;;5000758;28;20558;-71
2023/07/30 06:26:17;;;;;;;16.38;3.45;;;17.60;99.90;;;;;;4997558;28;20037;-71
2023/07/30 06:28:42;;;;;;;14.60;2.40;;;17.60;99.90;;;;;;4999275;28;20045;-71
2023/07/30 06:31:08;;;;;;;10.45;2.13;;;17.60;99.90;;;;;;4999761;28;20488;-72
2023/07/30 06:33:33;;;;;;;17.02;2.38;;;17.70;99.90;;;;;;4995373;28;20447;-72
2023/07/30 06:35:59;;;;;;;14.88;2.90;;;17.80;99.90;;;;;;4997301;28;20570;-71
2023/07/30 06:38:25;;;;;;;16.02;2.40;;;17.80;99.90;;;;;;5016208;28;20837;-71
2023/07/30 06:40:50;;;;;;;12.45;2.53;;;17.80;99.90;;;;;;5008500;28;20045;-72
2023/07/30 06:43:16;;;;;;;22.90;1.85;;;17.80;99.90;;;;;;4977642;28;20511;-73
2023/07/30 06:45:41;;;;;;;16.83;3.05;;;17.60;99.90;;;;;;4992979;28;20037;-72
2023/07/30 06:48:07;;;;;;;12.52;2.75;;;17.60;99.90;;;;;;5003310;28;20520;-72
2023/07/30 06:50:32;;;;;;;16.92;2.53;;;17.60;99.90;;;;;;4990316;28;20084;-70
2023/07/30 06:52:58;;;;;;;7.25;2.13;;;17.50;99.90;;;;;;4986013;28;20038;-72
2023/07/30 06:55:23;;;;;;;10.82;2.35;;;17.40;99.90;;;;;;4991745;28;20074;-72
2023/07/30 06:57:49;;;;;;;10.73;1.63;;;17.50;99.90;;;;;;4997101;28;20026;-70
2023/07/30 07:00:21;;;;;;;15.40;1.40;;;17.50;99.90;;;;;;4995736;28;20038;-72
2023/07/30 07:02:50;;;;;;;11.95;1.70;;;17.60;99.90;;;;;;4996110;28;20053;-71
2023/07/30 07:05:16;;;;;;;12.60;1.80;;;17.70;99.90;;;;;;4995356;28;20372;-73
2023/07/30 07:07:41;;;;;;;10.60;1.52;;;17.70;99.90;;;;;;4997478;28;20033;-72
2023/07/30 07:10:07;;;;;;;13.48;2.47;;;17.80;99.90;;;;;;4996755;28;20518;-71
2023/07/30 07:12:33;;;;;;;14.27;2.15;;;17.90;99.90;;;;;;4995448;28;20034;-72
2023/07/30 07:15:01;;;;;;;10.07;1.90;;;18.10;99.90;;;;;;4998575;28;20045;-71
2023/07/30 07:17:27;;;;;;;17.55;2.47;;;18.40;99.90;;;;;;4995019;28;20034;-72
2023/07/30 07:19:52;;;;;;;12.65;1.90;;;18.70;99.90;;;;;;4995148;28;20037;-72
2023/07/30 07:22:18;;;;;;;8.85;1.77;;;18.70;99.90;;;;;;4993387;28;20034;-73
2023/07/30 07:24:44;;;;;;;8.45;1.88;;;18.80;99.90;;;;;;4997618;28;20047;-72
2023/07/30 07:27:11;;;;;;;12.40;1.90;;;18.90;99.90;;;;;;4993795;28;20033;-76
2023/07/30 07:29:37;;;;;;;9.07;1.33;;;19.00;99.90;;;;;;4995298;28;20538;-72
2023/07/30 07:32:03;;;;;;;15.10;1.85;;;19.00;99.90;;;;;;4996799;28;20044;-70
2023/07/30 07:34:28;;;;;;;10.00;1.95;;;19.20;99.90;;;;;;4989762;28;20509;-71
2023/07/30 07:36:54;;;;;;;11.13;1.58;;;19.40;99.90;;;;;;4997795;28;20114;-71
2023/07/30 07:39:20;;;;;;;14.77;2.78;;;19.60;99.90;;;;;;4997369;28;20647;-71
2023/07/30 07:41:45;;;;;;;5.85;1.25;;;19.80;99.90;;;;;;4994114;28;20057;-70
2023/07/30 07:44:11;;;;;;;12.82;1.80;;;19.90;99.90;;;;;;4995508;28;20499;-71
2023/07/30 07:46:36;;;;;;;13.25;1.92;;;19.90;99.90;;;;;;4993408;28;20501;-72
2023/07/30 07:49:02;;;;;;;10.95;1.30;;;19.70;99.90;;;;;;4994974;28;20626;-70
2023/07/30 07:51:28;;;;;;;8.48;2.00;;;19.70;99.90;;;;;;4997781;28;20079;-71
2023/07/30 07:53:53;;;;;;;10.63;1.73;;;20.00;99.90;;;;;;5143909;22;20123;-72
2023/07/30 07:56:19;;;;;;;9.73;1.85;;;20.20;99.90;;;;;;4995693;28;20038;-71
2023/07/30 07:58:44;;;;;;;9.00;1.70;;;20.30;99.90;;;;;;4997446;28;20026;-71
2023/07/30 08:01:10;;;;;;;12.85;1.63;;;20.30;99.90;;;;;;4997065;28;20044;-71
2023/07/30 08:03:35;;;;;;;20.35;2.05;;;20.20;99.90;;;;;;4994800;28;20051;-72
2023/07/30 08:06:01;;;;;;;8.95;1.60;;;20.20;99.90;;;;;;4998176;28;20045;-71
2023/07/30 08:08:27;;;;;;;10.20;1.98;;;20.30;99.90;;;;;;4995197;28;20567;-72
2023/07/30 08:10:53;;;;;;;17.30;2.10;;;20.50;99.90;;;;;;4998758;28;20054;-70
2023/07/30 08:13:18;;;;;;;8.10;1.45;;;20.50;99.90;;;;;;4994159;28;20484;-71
2023/07/30 08:15:44;;;;;;;12.40;1.90;;;20.50;99.90;;;;;;4996875;28;20056;-71
2023/07/30 08:18:09;;;;;;;9.23;1.15;;;20.50;99.90;;;;;;4995510;28;20736;-70
2023/07/30 08:20:36;;;;;;;7.25;1.33;;;20.50;99.90;;;;;;4995981;28;20645;-71
2023/07/30 08:23:01;;;;;;;9.85;2.00;;;20.40;99.90;;;;;;4996827;28;20084;-70
2023/07/30 08:25:27;;;;;;;8.27;1.38;;;20.30;99.90;;;;;;4994594;28;20399;-71
2023/07/30 08:27:52;;;;;;;9.98;1.50;;;20.30;99.90;;;;;;4997879;28;20044;-70
2023/07/30 08:30:18;;;;;;;7.05;1.30;;;20.30;99.90;;;;;;4994518;28;20035;-71
2023/07/30 08:32:44;;;;;;;13.70;2.92;;;20.40;99.90;;;;;;4998536;28;20425;-71
2023/07/30 08:35:10;;;;;;;6.80;1.92;;;20.60;99.90;;;;;;4999760;28;20376;-71
2023/07/30 08:37:36;;;;;;;14.13;1.55;;;20.70;99.90;;;;;;4995220;28;20073;-71
2023/07/30 08:40:02;;;;;;;8.95;1.08;;;21.10;99.90;;;;;;4998273;28;20514;-71
2023/07/30 08:42:28;;;;;;;9.32;1.05;;;21.30;99.90;;;;;;5000819;28;20050;-71
2023/07/30 08:44:54;;;;;;;8.35;1.25;;;21.30;99.90;;;;;;5002327;28;20733;-70
2023/07/30 08:47:20;;;;;;;8.38;1.10;;;21.20;99.90;;;;;;4998602;28;20041;-71
2023/07/30 08:49:45;;;;;;;10.55;1.50;;;21.10;99.90;;;;;;4998223;28;20074;-71
2023/07/30 08:52:11;;;;;;;8.48;1.45;;;20.90;99.90;;;;;;4998381;28;20094;-73
2023/07/30 08:54:38;;;;;;;8.07;1.83;;;20.70;99.90;;;;;;4999847;28;20403;-71
2023/07/30 08:57:04;;;;;;;8.35;1.50;;;20.40;99.90;;;;;;4992807;28;20557;-70
2023/07/30 08:59:39;;;;;;;7.90;1.63;;;20.30;99.90;;;;;;4991318;28;20038;-71
2023/07/30 09:02:13;;;;;;;8.25;0.98;;;20.20;99.90;;;;;;5000712;28;20065;-71
2023/07/30 09:04:40;;;;;;;7.15;1.40;;;20.00;99.90;;;;;;4999704;28;20193;-71
2023/07/30 09:07:10;;;;;;;7.25;2.08;;;19.90;99.90;;;;;;4998079;28;20030;-71
2023/07/30 09:09:36;;;;;;;7.88;1.67;;;19.80;99.90;;;;;;5000248;28;20030;-71
2023/07/30 09:12:02;;;;;;;12.43;1.95;;;19.60;99.90;;;;;;4998386;28;20038;-71
2023/07/30 09:14:28;;;;;;;4.30;0.82;;;19.40;99.90;;;;;;4993800;28;20053;-71
2023/07/30 09:16:58;;;;;;;6.78;2.05;;;19.40;99.90;;;;;;5000853;28;20618;-70
2023/07/30 09:19:23;;;;;;;19.00;1.67;;;19.50;99.90;;;;;;4996560;28;20042;-70
2023/07/30 09:21:49;;;;;;;10.60;1.40;;;19.70;99.90;;;;;;5002437;28;20092;-72
2023/07/30 09:24:21;;;;;;;8.32;2.17;;;20.10;99.90;;;;;;4997836;28;20492;-73
2023/07/30 09:26:47;;;;;;;9.13;1.40;;;20.30;99.90;;;;;;4995085;28;20030;-70
2023/07/30 09:29:13;;;;;;;6.90;1.10;;;20.40;99.90;;;;;;5000907;28;20034;-70
2023/07/30 09:31:56;;;;;;;17.25;1.35;;;20.50;99.90;;;;;;4993978;28;20084;-70
2023/07/30 09:34:24;;;;;;;8.80;1.13;;;20.30;99.90;;;;;;4995276;28;20088;-70
2023/07/30 09:36:56;;;;;;;4.38;0.98;;;20.20;99.90;;;;;;5002073;28;20488;-70
2023/07/30 09:39:24;;;;;;;11.18;2.45;;;20.30;99.90;;;;;;4999906;28;20034;-71
2023/07/30 09:42:00;;;;;;;5.03;0.90;;;20.50;99.90;;;;;;5004818;28;20530;-70
2023/07/30 09:44:25;;;;;;;5.07;1.05;;;20.90;99.90;;;;;;5000555;28;20580;-71
2023/07/30 09:46:51;;;;;;;4.65;0.85;;;21.10;99.90;;;;;;4998000;28;20034;-70
2023/07/30 09:49:18;;;;;;;8.23;1.20;;;21.20;99.90;;;;;;4999819;28;20068;-71
2023/07/30 09:51:44;;;;;;;7.25;1.27;;;21.20;99.90;;;;;;4998674;28;20129;-70
2023/07/30 09:54:12;;;;;;;5.63;1.02;;;21.10;99.90;;;;;;5000871;28;20136;-70
2023/07/30 09:56:39;;;;;;;5.03;0.77;;;21.00;99.90;;;;;;5000980;28;20034;-71
2023/07/30 09:59:06;;;;;;;5.53;1.00;;;20.90;99.90;;;;;;4994746;28;20034;-70
2023/07/30 10:01:35;;;;;;;3.88;1.00;;;21.00;99.90;;;;;;4999940;28;20470;-70
2023/07/30 10:04:08;;;;;;;6.70;1.23;;;21.10;99.90;;;;;;4998321;28;20030;-70
2023/07/30 10:06:42;;;;;;;3.47;0.85;;;21.10;99.90;;;;;;4997332;28;20030;-70
2023/07/30 10:09:10;;;;;;;3.08;0.50;;;21.30;99.90;;;;;;4995635;28;20053;-70
2023/07/30 10:11:37;;;;;;;11.30;1.15;;;21.70;99.90;;;;;;4991613;28;20082;-70
2023/07/30 10:14:03;;;;;;;4.38;0.65;;;21.90;99.90;;;;;;4997877;28;20049;-70
2023/07/30 10:16:30;;;;;;;3.88;0.98;;;21.80;99.90;;;;;;4992339;28;20058;-70
2023/07/30 10:18:57;;;;;;;8.90;1.67;;;21.70;99.90;;;;;;4998360;28;20042;-70
2023/07/30 10:21:25;;;;;;;7.78;1.25;;;21.70;99.90;;;;;;4989186;28;20038;-71
2023/07/30 10:24:02;;;;;;;5.47;0.90;;;21.50;99.90;;;;;;4999164;28;20047;-70
2023/07/30 10:26:32;;;;;;;7.05;1.13;;;21.50;99.90;;;;;;4995583;28;20076;-70
2023/07/30 10:29:18;;;;;;;10.98;1.10;;;21.40;99.90;;;;;;4998257;28;20034;-70
2023/07/30 10:31:55;;;;;;;4.15;0.68;;;21.70;99.90;;;;;;4990832;28;20431;-71
2023/07/30 10:34:21;;;;;;;5.88;0.60;;;21.80;99.90;;;;;;4993526;28;20047;-71
2023/07/30 10:36:49;;;;;;;3.47;0.93;;;21.90;99.90;;;;;;4999068;28;20026;-70
2023/07/30 10:39:18;;;;;;;4.82;1.00;;;22.00;99.90;;;;;;4995298;28;20030;-71
2023/07/30 10:41:54;;;;;;;2.30;0.40;;;22.10;99.90;;;;;;4991001;28;20049;-70
2023/07/30 10:44:25;;;;;;;4.25;1.00;;;22.40;99.90;;;;;;4988226;28;20557;-71
2023/07/30 10:46:58;;;;;;;3.95;0.50;;;22.50;99.90;;;;;;4996791;28;20034;-70
2023/07/30 10:49:24;;;;;;;2.55;0.40;;;22.70;99.90;;;;;;4997120;28;20049;-70
2023/07/30 10:51:57;;;;;;;5.75;0.70;;;22.60;99.90;;;;;;4994831;28;20031;-71
2023/07/30 10:54:23;;;;;;;2.75;0.43;;;22.50;99.90;;;;;;4997529;28;20042;-70
2023/07/30 10:56:49;;;;;;;6.40;0.82;;;22.60;99.90;;;;;;4994727;28;20030;-70
2023/07/30 10:59:15;;;;;;;3.85;0.52;;;22.40;99.90;;;;;;4991166;28;20121;-71
2023/07/30 11:01:43;;;;;;;6.13;0.73;;;22.30;99.90;;;;;;4986727;28;20041;-70
2023/07/30 11:04:13;;;;;;;5.75;0.70;;;22.30;99.90;;;;;;5000384;28;20126;-70
2023/07/30 11:06:39;;;;;;;3.08;0.38;;;22.30;99.90;;;;;;4994439;28;20099;-70
2023/07/30 11:09:05;;;;;;;4.05;0.70;;;22.10;99.90;;;;;;4997561;28;20567;-70
2023/07/30 11:11:31;;;;;;;3.33;0.50;;;22.00;99.90;;;;;;4998245;28;20085;-70
2023/07/30 11:13:58;;;;;;;4.25;0.43;;;21.90;99.90;;;;;;4997085;28;20026;-70
2023/07/30 11:16:24;;;;;;;2.80;0.45;;;21.70;99.90;;;;;;4995577;28;20140;-70
2023/07/30 11:18:50;;;;;;;5.75;1.08;;;21.70;99.90;;;;;;4998409;28;20085;-70
2023/07/30 11:21:17;;;;;;;6.28;1.35;;;21.70;99.90;;;;;;4994800;28;20042;-70
2023/07/30 11:23:44;;;;;;;8.40;1.85;;;21.80;99.90;;;;;;4998255;28;20037;-70
2023/07/30 11:26:15;;;;;;;4.28;0.55;;;22.00;99.90;;;;;;4996344;28;20064;-70
2023/07/30 11:28:40;;;;;;;7.72;0.93;;;22.20;99.90;;;;;;4987687;28;20056;-70
2023/07/30 11:31:08;;;;;;;5.22;1.27;;;22.60;99.90;;;;;;4992244;28;20058;-70
2023/07/30 11:33:36;;;;;;;3.63;0.45;;;22.70;99.90;;;;;;4996625;28;20038;-70
2023/07/30 11:36:03;;;;;;;4.70;1.67;;;22.80;99.90;;;;;;4995710;28;20034;-70
2023/07/30 11:38:30;;;;;;;7.45;0.95;;;22.80;99.90;;;;;;4993571;28;20085;-70
2023/07/30 11:40:56;;;;;;;4.60;0.80;;;22.80;99.90;;;;;;4994026;28;20066;-70
2023/07/30 11:43:22;;;;;;;5.93;1.20;;;22.70;99.90;;;;;;4995504;28;20065;-70
2023/07/30 11:45:49;;;;;;;3.25;0.68;;;22.60;99.90;;;;;;4988996;28;20041;-70
2023/07/30 11:48:14;;;;;;;8.05;0.88;;;22.60;99.90;;;;;;4992092;28;20030;-70
2023/07/30 11:50:51;;;;;;;5.32;0.80;;;22.50;99.90;;;;;;4998069;28;20048;-70
2023/07/30 11:53:17;;;;;;;6.22;0.60;;;22.30;99.90;;;;;;4991459;28;20030;-70
2023/07/30 11:55:44;;;;;;;3.22;0.30;;;22.20;99.90;;;;;;4995337;28;20113;-70
2023/07/30 11:58:11;;;;;;;1.10;0.30;;;22.20;99.90;;;;;;4991853;28;20677;-70
2023/07/30 12:00:37;;;;;;;4.05;1.35;;;22.20;99.90;;;;;;4989655;28;20095;-70
2023/07/30 12:03:05;;;;;;;2.47;0.52;;;22.30;99.90;;;;;;4996112;28;20031;-70
2023/07/30 12:05:35;;;;;;;2.78;0.43;;;22.40;99.90;;;;;;4998313;28;20034;-70
2023/07/30 12:08:07;;;;;;;2.17;0.32;;;22.50;99.90;;;;;;4999728;28;20088;-70
2023/07/30 12:10:45;;;;;;;1.60;0.20;;;22.60;99.90;;;;;;4994134;28;20065;-70
2023/07/30 12:13:20;;;;;;;6.22;0.70;;;22.70;99.90;;;;;;4992211;28;20035;-70
2023/07/30 12:15:55;;;;;;;5.57;0.43;;;22.50;99.90;;;;;;4993840;28;20033;-70
2023/07/30 12:18:25;;;;;;;3.20;0.38;;;22.40;99.90;;;;;;4991202;28;20057;-70
2023/07/30 12:20:52;;;;;;;6.97;0.47;;;22.40;99.90;;;;;;4995870;28;20031;-70
2023/07/30 12:23:19;;;;;;;2.55;0.90;;;22.40;99.90;;;;;;4993763;28;20041;-71
2023/07/30 12:25:45;;;;;;;3.72;0.30;;;22.40;99.90;;;;;;4994482;28;20035;-70
2023/07/30 12:28:10;;;;;;;2.92;0.35;;;22.30;99.90;;;;;;4996745;28;20041;-70
2023/07/30 12:30:36;;;;;;;2.70;0.40;;;22.20;99.90;;;;;;4994372;28;20030;-70
2023/07/30 12:33:06;;;;;;;2.20;0.30;;;22.20;99.90;;;;;;4995445;28;20030;-71
2023/07/30 12:35:32;;;;;;;6.22;0.40;;;22.20;99.90;;;;;;4994831;28;20038;-70
2023/07/30 12:37:58;;;;;;;1.85;0.30;;;22.20;99.90;;;;;;4996979;28;20372;-70
2023/07/30 12:40:24;;;;;;;1.58;0.30;;;22.40;99.90;;;;;;4995919;28;20353;-70